createdAt,value
2016-06-19T00:00:20.699Z,965.71
2016-06-19T00:01:20.718Z,965.72
2016-06-19T00:02:20.721Z,965.76
2016-06-19T00:03:20.725Z,965.73
2016-06-19T00:04:20.744Z,965.71
2016-06-19T00:05:20.763Z,965.76
2016-06-19T00:06:20.766Z,965.73
2016-06-19T00:07:20.786Z,965.74
2016-06-19T00:08:20.805Z,965.74
2016-06-19T00:09:20.808Z,965.72
2016-06-19T00:10:20.828Z,965.75
2016-06-19T00:11:20.830Z,965.76
2016-06-19T00:12:20.834Z,965.77
2016-06-19T00:13:20.838Z,965.72
2016-06-19T00:14:20.857Z,965.73
2016-06-19T00:15:20.861Z,965.7
2016-06-19T00:16:20.880Z,965.69
2016-06-19T00:17:20.883Z,965.74
2016-06-19T00:18:20.902Z,965.72
2016-06-19T00:19:20.905Z,965.7
2016-06-19T00:20:20.925Z,965.75
2016-06-19T00:21:20.944Z,965.74
2016-06-19T00:22:20.947Z,965.7
2016-06-19T00:23:20.950Z,965.7
2016-06-19T00:24:20.969Z,965.68
2016-06-19T00:25:20.973Z,965.69
2016-06-19T00:26:20.993Z,965.67
2016-06-19T00:27:20.996Z,965.7
2016-06-19T00:28:21.015Z,965.67
2016-06-19T00:29:21.017Z,965.68
2016-06-19T00:30:21.037Z,965.66
2016-06-19T00:31:21.041Z,965.66
2016-06-19T00:32:21.060Z,965.7
2016-06-19T00:33:21.064Z,965.65
2016-06-19T00:34:21.082Z,965.69
2016-06-19T00:35:21.086Z,965.69
2016-06-19T00:36:21.105Z,965.73
2016-06-19T00:37:21.109Z,965.69
2016-06-19T00:38:21.127Z,965.73
2016-06-19T00:39:21.130Z,965.72
2016-06-19T00:40:21.134Z,965.69
2016-06-19T00:41:21.153Z,965.68
2016-06-19T00:42:21.157Z,965.7
2016-06-19T00:43:21.177Z,965.7
2016-06-19T00:44:21.180Z,965.69
2016-06-19T00:45:21.199Z,965.64
2016-06-19T00:46:21.202Z,965.65
2016-06-19T00:47:21.221Z,965.63
2016-06-19T00:48:21.240Z,965.63
2016-06-19T00:49:21.244Z,965.59
2016-06-19T00:50:21.263Z,965.55
2016-06-19T00:51:21.266Z,965.57
2016-06-19T00:52:21.286Z,965.54
2016-06-19T00:53:21.289Z,965.53
2016-06-19T00:54:21.292Z,965.52
2016-06-19T00:55:21.310Z,965.52
2016-06-19T00:56:21.330Z,965.52
2016-06-19T00:57:21.334Z,965.52
2016-06-19T00:58:21.353Z,965.52
2016-06-19T00:59:21.357Z,965.51
2016-06-19T01:00:21.375Z,965.53
2016-06-19T01:01:21.379Z,965.51
2016-06-19T01:02:21.398Z,965.47
2016-06-19T01:03:21.402Z,965.46
2016-06-19T01:04:21.405Z,965.47
2016-06-19T01:05:21.424Z,965.47
2016-06-19T01:06:21.428Z,965.49
2016-06-19T01:07:21.446Z,965.51
2016-06-19T01:08:21.449Z,965.53
2016-06-19T01:09:21.469Z,965.48
2016-06-19T01:10:21.472Z,965.49
2016-06-19T01:11:21.491Z,965.49
2016-06-19T01:12:21.511Z,965.46
2016-06-19T01:13:21.514Z,965.46
2016-06-19T01:14:21.534Z,965.45
2016-06-19T01:15:21.537Z,965.44
2016-06-19T01:16:21.541Z,965.42
2016-06-19T01:17:21.559Z,965.46
2016-06-19T01:18:21.563Z,965.47
2016-06-19T01:19:21.582Z,965.45
2016-06-19T01:20:21.601Z,965.46
2016-06-19T01:21:21.605Z,965.44
2016-06-19T01:22:21.623Z,965.48
2016-06-19T01:23:21.626Z,965.48
2016-06-19T01:24:21.630Z,965.45
2016-06-19T01:25:21.650Z,965.45
2016-06-19T01:26:21.653Z,965.49
2016-06-19T01:27:21.672Z,965.44
2016-06-19T01:28:21.675Z,965.46
2016-06-19T01:29:21.678Z,965.43
2016-06-19T01:30:21.698Z,965.42
2016-06-19T01:31:21.702Z,965.4
2016-06-19T01:32:21.721Z,965.4
2016-06-19T01:33:21.739Z,965.38
2016-06-19T01:34:21.743Z,965.36
2016-06-19T01:35:21.762Z,965.37
2016-06-19T01:36:21.766Z,965.35
2016-06-19T01:37:21.785Z,965.35
2016-06-19T01:38:21.788Z,965.33
2016-06-19T01:39:21.807Z,965.33
2016-06-19T01:40:21.811Z,965.35
2016-06-19T01:41:21.814Z,965.37
2016-06-19T01:42:21.833Z,965.32
2016-06-19T01:43:21.837Z,965.33
2016-06-19T01:44:21.855Z,965.33
2016-06-19T01:45:21.875Z,965.33
2016-06-19T01:46:21.878Z,965.33
2016-06-19T01:47:21.897Z,965.36
2016-06-19T01:48:21.901Z,965.3
2016-06-19T01:49:21.905Z,965.3
2016-06-19T01:50:21.923Z,965.32
2016-06-19T01:51:21.926Z,965.29
2016-06-19T01:52:21.946Z,965.31
2016-06-19T01:53:21.950Z,965.31
2016-06-19T01:54:21.969Z,965.29
2016-06-19T01:55:21.976Z,965.3
2016-06-19T01:56:21.999Z,965.24
2016-06-19T01:57:22.006Z,965.32
2016-06-19T01:58:22.029Z,965.34
2016-06-19T01:59:22.050Z,965.32
2016-06-19T02:00:22.055Z,965.3
2016-06-19T02:01:22.060Z,965.35
2016-06-19T02:02:22.080Z,965.32
2016-06-19T02:03:22.086Z,965.34
2016-06-19T02:04:22.106Z,965.38
2016-06-19T02:05:22.110Z,965.36
2016-06-19T02:06:22.145Z,965.38
2016-06-19T02:07:22.133Z,965.36
2016-06-19T02:08:22.153Z,965.36
2016-06-19T02:09:22.157Z,965.37
2016-06-19T02:10:22.176Z,965.38
2016-06-19T02:11:22.195Z,965.36
2016-06-19T02:12:22.198Z,965.36
2016-06-19T02:13:22.201Z,965.38
2016-06-19T02:14:22.221Z,965.37
2016-06-19T02:15:22.225Z,965.34
2016-06-19T02:16:22.227Z,965.33
2016-06-19T02:17:22.246Z,965.37
2016-06-19T02:18:22.250Z,965.34
2016-06-19T02:19:22.270Z,965.38
2016-06-19T02:20:22.272Z,965.36
2016-06-19T02:21:22.292Z,965.37
2016-06-19T02:22:22.296Z,965.35
2016-06-19T02:23:22.314Z,965.34
2016-06-19T02:24:22.333Z,965.33
2016-06-19T02:25:22.337Z,965.38
2016-06-19T02:26:22.357Z,965.36
2016-06-19T02:27:22.360Z,965.35
2016-06-19T02:28:22.378Z,965.36
2016-06-19T02:29:22.382Z,965.37
2016-06-19T02:30:22.401Z,965.36
2016-06-19T02:31:22.405Z,965.4
2016-06-19T02:32:22.408Z,965.36
2016-06-19T02:33:22.427Z,965.38
2016-06-19T02:34:22.430Z,965.36
2016-06-19T02:35:22.450Z,965.32
2016-06-19T02:36:22.453Z,965.34
2016-06-19T02:37:22.472Z,965.34
2016-06-19T02:38:22.476Z,965.31
2016-06-19T02:39:22.494Z,965.34
2016-06-19T02:40:22.497Z,965.33
2016-06-19T02:41:22.517Z,965.32
2016-06-19T02:42:22.521Z,965.35
2016-06-19T02:43:22.540Z,965.35
2016-06-19T02:44:22.544Z,965.37
2016-06-19T02:45:22.562Z,965.39
2016-06-19T02:46:22.581Z,965.37
2016-06-19T02:47:22.585Z,965.38
2016-06-19T02:48:22.589Z,965.4
2016-06-19T02:49:22.606Z,965.42
2016-06-19T02:50:22.610Z,965.44
2016-06-19T02:51:22.630Z,965.43
2016-06-19T02:52:22.634Z,965.39
2016-06-19T02:53:22.652Z,965.39
2016-06-19T02:54:22.656Z,965.4
2016-06-19T02:55:22.675Z,965.4
2016-06-19T02:56:22.678Z,965.41
2016-06-19T02:57:22.697Z,965.37
2016-06-19T02:58:22.701Z,965.42
2016-06-19T02:59:22.705Z,965.43
2016-06-19T03:00:22.724Z,965.43
2016-06-19T03:01:22.742Z,965.42
2016-06-19T03:02:22.746Z,965.44
2016-06-19T03:03:22.749Z,965.45
2016-06-19T03:04:22.769Z,965.5
2016-06-19T03:05:22.772Z,965.49
2016-06-19T03:06:22.791Z,965.52
2016-06-19T03:07:22.794Z,965.52
2016-06-19T03:08:22.814Z,965.49
2016-06-19T03:09:22.833Z,965.58
2016-06-19T03:10:22.836Z,965.56
2016-06-19T03:11:22.855Z,965.55
2016-06-19T03:12:22.858Z,965.57
2016-06-19T03:13:22.862Z,965.57
2016-06-19T03:14:22.882Z,965.57
2016-06-19T03:15:22.885Z,965.59
2016-06-19T03:16:22.904Z,965.64
2016-06-19T03:17:22.908Z,965.66
2016-06-19T03:18:22.927Z,965.66
2016-06-19T03:19:22.929Z,965.66
2016-06-19T03:20:22.949Z,965.65
2016-06-19T03:21:22.953Z,965.64
2016-06-19T03:22:22.971Z,965.67
2016-06-19T03:23:22.974Z,965.65
2016-06-19T03:24:22.994Z,965.71
2016-06-19T03:25:22.998Z,965.64
2016-06-19T03:26:23.017Z,965.69
2016-06-19T03:27:23.035Z,965.68
2016-06-19T03:28:23.039Z,965.69
2016-06-19T03:29:23.042Z,965.71
2016-06-19T03:30:23.062Z,965.73
2016-06-19T03:31:23.065Z,965.75
2016-06-19T03:32:23.084Z,965.77
2016-06-19T03:33:23.088Z,965.76
2016-06-19T03:34:23.107Z,965.83
2016-06-19T03:35:23.110Z,965.82
2016-06-19T03:36:23.129Z,965.81
2016-06-19T03:37:23.148Z,965.81
2016-06-19T03:38:23.136Z,965.81
2016-06-19T03:39:23.155Z,965.89
2016-06-19T03:40:23.158Z,965.89
2016-06-19T03:41:23.194Z,965.88
2016-06-19T03:42:23.181Z,965.88
2016-06-19T03:43:23.201Z,965.9
2016-06-19T03:44:23.219Z,965.91
2016-06-19T03:45:23.222Z,965.92
2016-06-19T03:46:23.226Z,965.88
2016-06-19T03:47:23.246Z,965.94
2016-06-19T03:48:23.248Z,965.92
2016-06-19T03:49:23.269Z,965.9
2016-06-19T03:50:23.287Z,965.95
2016-06-19T03:51:23.290Z,965.97
2016-06-19T03:52:23.293Z,965.93
2016-06-19T03:53:23.314Z,965.94
2016-06-19T03:54:23.317Z,965.92
2016-06-19T03:55:23.335Z,965.95
2016-06-19T03:56:23.339Z,965.96
2016-06-19T03:57:23.342Z,965.97
2016-06-19T03:58:23.378Z,965.98
2016-06-19T03:59:23.365Z,965.97
2016-06-19T04:00:23.385Z,966
2016-06-19T04:01:23.403Z,966.01
2016-06-19T04:02:23.406Z,966.06
2016-06-19T04:03:23.426Z,966.05
2016-06-19T04:04:23.429Z,966.07
2016-06-19T04:05:23.449Z,966.07
2016-06-19T04:06:23.452Z,966.09
2016-06-19T04:07:23.471Z,966.09
2016-06-19T04:08:23.474Z,966.09
2016-06-19T04:09:23.494Z,966.08
2016-06-19T04:10:23.497Z,966.11
2016-06-19T04:11:23.501Z,966.12
2016-06-19T04:12:23.521Z,966.12
2016-06-19T04:13:23.527Z,966.13
2016-06-19T04:14:23.547Z,966.15
2016-06-19T04:15:23.552Z,966.12
2016-06-19T04:16:23.573Z,966.17
2016-06-19T04:17:23.592Z,966.2
2016-06-19T04:18:23.597Z,966.17
2016-06-19T04:19:23.616Z,966.15
2016-06-19T04:20:23.621Z,966.21
2016-06-19T04:21:23.625Z,966.18
2016-06-19T04:22:23.644Z,966.23
2016-06-19T04:23:23.647Z,966.2
2016-06-19T04:24:23.666Z,966.22
2016-06-19T04:25:23.670Z,966.2
2016-06-19T04:26:23.689Z,966.19
2016-06-19T04:27:23.692Z,966.23
2016-06-19T04:28:23.711Z,966.24
2016-06-19T04:29:23.730Z,966.18
2016-06-19T04:30:23.734Z,966.21
2016-06-19T04:31:23.737Z,966.2
2016-06-19T04:32:23.756Z,966.22
2016-06-19T04:33:23.760Z,966.2
2016-06-19T04:34:23.779Z,966.2
2016-06-19T04:35:23.782Z,966.19
2016-06-19T04:36:23.801Z,966.23
2016-06-19T04:37:23.805Z,966.25
2016-06-19T04:38:23.825Z,966.24
2016-06-19T04:39:23.827Z,966.29
2016-06-19T04:40:23.846Z,966.27
2016-06-19T04:41:23.850Z,966.3
2016-06-19T04:42:23.853Z,966.32
2016-06-19T04:43:23.873Z,966.27
2016-06-19T04:44:23.892Z,966.27
2016-06-19T04:45:23.894Z,966.24
2016-06-19T04:46:23.914Z,966.28
2016-06-19T04:47:23.918Z,966.26
2016-06-19T04:48:23.921Z,966.26
2016-06-19T04:49:23.940Z,966.24
2016-06-19T04:50:23.959Z,966.24
2016-06-19T04:51:23.962Z,966.29
2016-06-19T04:52:23.966Z,966.27
2016-06-19T04:53:23.985Z,966.24
2016-06-19T04:54:23.988Z,966.24
2016-06-19T04:55:24.008Z,966.25
2016-06-19T04:56:24.012Z,966.29
2016-06-19T04:57:24.030Z,966.31
2016-06-19T04:58:24.049Z,966.27
2016-06-19T04:59:24.053Z,966.27
2016-06-19T05:00:24.056Z,966.29
2016-06-19T05:01:24.075Z,966.29
2016-06-19T05:02:24.079Z,966.28
2016-06-19T05:03:24.098Z,966.32
2016-06-19T05:04:24.101Z,966.28
2016-06-19T05:05:24.121Z,966.26
2016-06-19T05:06:24.124Z,966.31
2016-06-19T05:07:24.128Z,966.3
2016-06-19T05:08:24.146Z,966.3
2016-06-19T05:09:24.165Z,966.28
2016-06-19T05:10:24.169Z,966.27
2016-06-19T05:11:24.189Z,966.29
2016-06-19T05:12:24.192Z,966.28
2016-06-19T05:13:24.195Z,966.27
2016-06-19T05:14:24.214Z,966.31
2016-06-19T05:15:24.217Z,966.28
2016-06-19T05:16:24.237Z,966.31
2016-06-19T05:17:24.271Z,966.34
2016-06-19T05:18:24.259Z,966.31
2016-06-19T05:19:24.278Z,966.35
2016-06-19T05:20:24.281Z,966.36
2016-06-19T05:21:24.301Z,966.33
2016-06-19T05:22:24.305Z,966.35
2016-06-19T05:23:24.308Z,966.37
2016-06-19T05:24:24.327Z,966.37
2016-06-19T05:25:24.330Z,966.41
2016-06-19T05:26:24.349Z,966.38
2016-06-19T05:27:24.353Z,966.37
2016-06-19T05:28:24.372Z,966.35
2016-06-19T05:29:24.376Z,966.39
2016-06-19T05:30:24.394Z,966.39
2016-06-19T05:31:24.397Z,966.39
2016-06-19T05:32:24.418Z,966.43
2016-06-19T05:33:24.420Z,966.39
2016-06-19T05:34:24.439Z,966.39
2016-06-19T05:35:24.443Z,966.4
2016-06-19T05:36:24.446Z,966.37
2016-06-19T05:37:24.466Z,966.42
2016-06-19T05:38:24.484Z,966.43
2016-06-19T05:39:24.488Z,966.43
2016-06-19T05:40:24.492Z,966.42
2016-06-19T05:41:24.511Z,966.46
2016-06-19T05:42:24.529Z,966.46
2016-06-19T05:43:24.534Z,966.49
2016-06-19T05:44:24.552Z,966.46
2016-06-19T05:45:24.571Z,966.46
2016-06-19T05:46:24.590Z,966.46
2016-06-19T05:47:24.578Z,966.47
2016-06-19T05:48:24.598Z,966.5
2016-06-19T05:49:24.600Z,966.47
2016-06-19T05:50:24.604Z,966.47
2016-06-19T05:51:24.623Z,966.53
2016-06-19T05:52:24.627Z,966.53
2016-06-19T05:53:24.645Z,966.55
2016-06-19T05:54:24.650Z,966.54
2016-06-19T05:55:24.668Z,966.52
2016-06-19T05:56:24.672Z,966.52
2016-06-19T05:57:24.691Z,966.53
2016-06-19T05:58:24.694Z,966.54
2016-06-19T05:59:24.714Z,966.53
2016-06-19T06:00:24.716Z,966.49
2016-06-19T06:01:24.736Z,966.5
2016-06-19T06:02:24.740Z,966.58
2016-06-19T06:03:24.758Z,966.56
2016-06-19T06:04:24.808Z,966.56
2016-06-19T06:05:24.781Z,966.55
2016-06-19T06:06:24.784Z,966.52
2016-06-19T06:07:24.803Z,966.57
2016-06-19T06:08:24.807Z,966.58
2016-06-19T06:09:24.826Z,966.56
2016-06-19T06:10:24.845Z,966.56
2016-06-19T06:11:24.849Z,966.56
2016-06-19T06:12:24.853Z,966.57
2016-06-19T06:13:24.871Z,966.56
2016-06-19T06:14:24.875Z,966.55
2016-06-19T06:15:24.878Z,966.6
2016-06-19T06:16:24.897Z,966.58
2016-06-19T06:17:24.901Z,966.62
2016-06-19T06:18:24.920Z,966.66
2016-06-19T06:19:24.923Z,966.64
2016-06-19T06:20:24.942Z,966.6
2016-06-19T06:21:24.961Z,966.62
2016-06-19T06:22:24.965Z,966.61
2016-06-19T06:23:25.280Z,966.64
2016-06-19T06:24:24.987Z,966.65
2016-06-19T06:25:25.054Z,966.65
2016-06-19T06:26:25.009Z,966.64
2016-06-19T06:27:25.013Z,966.62
2016-06-19T06:28:25.039Z,966.65
2016-06-19T06:29:25.298Z,966.65
2016-06-19T06:30:25.073Z,966.66
2016-06-19T06:31:25.098Z,966.65
2016-06-19T06:32:25.106Z,966.68
2016-06-19T06:33:25.315Z,966.67
2016-06-19T06:34:25.134Z,966.68
2016-06-19T06:35:25.155Z,966.68
2016-06-19T06:36:25.161Z,966.73
2016-06-19T06:37:25.416Z,966.72
2016-06-19T06:38:25.186Z,966.73
2016-06-19T06:39:25.316Z,966.74
2016-06-19T06:40:25.210Z,966.74
2016-06-19T06:41:25.214Z,966.73
2016-06-19T06:42:25.235Z,966.76
2016-06-19T06:43:25.487Z,966.76
2016-06-19T06:44:25.257Z,966.81
2016-06-19T06:45:25.260Z,966.79
2016-06-19T06:46:25.327Z,966.78
2016-06-19T06:47:25.283Z,966.85
2016-06-19T06:48:25.302Z,966.82
2016-06-19T06:49:25.306Z,966.85
2016-06-19T06:50:25.325Z,966.82
2016-06-19T06:51:25.437Z,966.86
2016-06-19T06:52:25.347Z,966.86
2016-06-19T06:53:25.350Z,966.88
2016-06-19T06:54:25.370Z,966.85
2016-06-19T06:55:25.373Z,966.88
2016-06-19T06:56:25.392Z,966.88
2016-06-19T06:57:25.395Z,966.9
2016-06-19T06:58:25.399Z,966.91
2016-06-19T06:59:25.668Z,966.9
2016-06-19T07:00:25.422Z,966.91
2016-06-19T07:01:25.441Z,966.93
2016-06-19T07:02:25.444Z,966.94
2016-06-19T07:03:25.463Z,966.97
2016-06-19T07:04:25.482Z,966.99
2016-06-19T07:05:25.486Z,967.01
2016-06-19T07:06:25.505Z,967.03
2016-06-19T07:07:25.509Z,967.03
2016-06-19T07:08:25.528Z,967.04
2016-06-19T07:09:25.530Z,967.04
2016-06-19T07:10:25.534Z,967.04
2016-06-19T07:11:25.850Z,967.05
2016-06-19T07:12:25.619Z,967.06
2016-06-19T07:13:25.576Z,967.08
2016-06-19T07:14:25.736Z,967.09
2016-06-19T07:15:25.598Z,967.06
2016-06-19T07:16:25.601Z,967.06
2016-06-19T07:17:25.871Z,967.11
2016-06-19T07:18:25.828Z,967.12
2016-06-19T07:19:25.643Z,967.14
2016-06-19T07:20:25.741Z,967.12
2016-06-19T07:21:25.667Z,967.14
2016-06-19T07:22:25.716Z,967.14
2016-06-19T07:23:25.689Z,967.13
2016-06-19T07:24:25.692Z,967.13
2016-06-19T07:25:25.711Z,967.18
2016-06-19T07:26:25.964Z,967.17
2016-06-19T07:27:25.734Z,967.16
2016-06-19T07:28:25.738Z,967.17
2016-06-19T07:29:26.005Z,967.16
2016-06-19T07:30:25.759Z,967.2
2016-06-19T07:31:25.779Z,967.25
2016-06-19T07:32:26.032Z,967.23
2016-06-19T07:33:25.817Z,967.27
2016-06-19T07:34:25.805Z,967.28
2016-06-19T07:35:25.809Z,967.24
2016-06-19T07:36:26.124Z,967.28
2016-06-19T07:37:25.830Z,967.22
2016-06-19T07:38:25.850Z,967.29
2016-06-19T07:39:26.009Z,967.26
2016-06-19T07:40:26.123Z,967.23
2016-06-19T07:41:25.922Z,967.26
2016-06-19T07:42:25.895Z,967.27
2016-06-19T07:43:25.961Z,967.27
2016-06-19T07:44:25.917Z,967.33
2016-06-19T07:45:25.921Z,967.3
2016-06-19T07:46:26.034Z,967.32
2016-06-19T07:47:25.943Z,967.32
2016-06-19T07:48:26.307Z,967.26
2016-06-19T07:49:25.982Z,967.3
2016-06-19T07:50:26.172Z,967.3
2016-06-19T07:51:25.988Z,967.3
2016-06-19T07:52:26.304Z,967.32
2016-06-19T07:53:26.011Z,967.3
2016-06-19T07:54:26.030Z,967.32
2016-06-19T07:55:26.034Z,967.25
2016-06-19T07:56:26.053Z,967.32
2016-06-19T07:57:26.057Z,967.3
2016-06-19T07:58:26.075Z,967.3
2016-06-19T07:59:26.079Z,967.3
2016-06-19T08:00:26.098Z,967.32
2016-06-19T08:01:26.101Z,967.28
2016-06-19T08:02:26.105Z,967.29
2016-06-19T08:03:26.123Z,967.31
2016-06-19T08:04:26.143Z,967.31
2016-06-19T08:05:26.146Z,967.3
2016-06-19T08:06:26.166Z,967.3
2016-06-19T08:07:26.170Z,967.3
2016-06-19T08:08:26.187Z,967.32
2016-06-19T08:09:26.192Z,967.36
2016-06-19T08:10:26.210Z,967.4
2016-06-19T08:11:26.214Z,967.38
2016-06-19T08:12:26.217Z,967.32
2016-06-19T08:13:26.237Z,967.33
2016-06-19T08:14:26.256Z,967.35
2016-06-19T08:15:26.259Z,967.39
2016-06-19T08:16:26.279Z,967.39
2016-06-19T08:17:26.687Z,967.34
2016-06-19T08:18:26.285Z,967.4
2016-06-19T08:19:26.304Z,967.37
2016-06-19T08:20:26.323Z,967.4
2016-06-19T08:21:26.327Z,967.4
2016-06-19T08:22:26.346Z,967.44
2016-06-19T08:23:26.397Z,967.43
2016-06-19T08:24:26.353Z,967.46
2016-06-19T08:25:26.371Z,967.42
2016-06-19T08:26:26.375Z,967.47
2016-06-19T08:27:26.394Z,967.47
2016-06-19T08:28:26.398Z,967.5
2016-06-19T08:29:26.417Z,967.46
2016-06-19T08:30:26.421Z,967.48
2016-06-19T08:31:26.439Z,967.48
2016-06-19T08:32:26.443Z,967.5
2016-06-19T08:33:26.462Z,967.51
2016-06-19T08:34:26.466Z,967.5
2016-06-19T08:35:26.484Z,967.52
2016-06-19T08:36:26.487Z,967.53
2016-06-19T08:37:26.507Z,967.57
2016-06-19T08:38:26.510Z,967.53
2016-06-19T08:39:26.530Z,967.57
2016-06-19T08:40:26.534Z,967.6
2016-06-19T08:41:26.552Z,967.61
2016-06-19T08:42:26.555Z,967.61
2016-06-19T08:43:26.574Z,967.6
2016-06-19T08:44:26.596Z,967.64
2016-06-19T08:45:26.587Z,967.61
2016-06-19T08:46:26.609Z,967.65
2016-06-19T08:47:26.630Z,967.63
2016-06-19T08:48:26.636Z,967.66
2016-06-19T08:49:26.641Z,967.69
2016-06-19T08:50:26.661Z,967.73
2016-06-19T08:51:26.666Z,967.74
2016-06-19T08:52:26.685Z,967.73
2016-06-19T08:53:26.706Z,967.76
2016-06-19T08:54:26.710Z,967.76
2016-06-19T08:55:26.730Z,967.78
2016-06-19T08:56:26.734Z,967.77
2016-06-19T08:57:26.752Z,967.79
2016-06-19T08:58:26.757Z,967.81
2016-06-19T08:59:26.760Z,967.8
2016-06-19T09:00:26.780Z,967.8
2016-06-19T09:01:26.799Z,967.83
2016-06-19T09:02:26.787Z,967.81
2016-06-19T09:03:26.821Z,967.81
2016-06-19T09:04:26.824Z,967.85
2016-06-19T09:05:26.844Z,967.82
2016-06-19T09:06:26.847Z,967.85
2016-06-19T09:07:26.851Z,967.86
2016-06-19T09:08:26.869Z,967.91
2016-06-19T09:09:26.873Z,967.9
2016-06-19T09:10:26.892Z,967.86
2016-06-19T09:11:26.895Z,967.86
2016-06-19T09:12:26.915Z,967.87
2016-06-19T09:13:26.918Z,967.88
2016-06-19T09:14:26.922Z,967.9
2016-06-19T09:15:26.940Z,967.88
2016-06-19T09:16:26.944Z,967.9
2016-06-19T09:17:26.980Z,967.87
2016-06-19T09:18:26.967Z,967.87
2016-06-19T09:19:26.987Z,967.89
2016-06-19T09:20:27.005Z,967.86
2016-06-19T09:21:27.025Z,967.84
2016-06-19T09:22:27.027Z,967.83
2016-06-19T09:23:27.031Z,967.86
2016-06-19T09:24:27.049Z,967.85
2016-06-19T09:25:27.053Z,967.87
2016-06-19T09:26:27.073Z,967.85
2016-06-19T09:27:27.076Z,967.88
2016-06-19T09:28:27.096Z,967.86
2016-06-19T09:29:27.098Z,967.87
2016-06-19T09:30:27.117Z,967.88
2016-06-19T09:31:27.121Z,967.85
2016-06-19T09:32:27.141Z,967.88
2016-06-19T09:33:27.144Z,967.92
2016-06-19T09:34:27.164Z,967.88
2016-06-19T09:35:27.166Z,967.89
2016-06-19T09:36:27.185Z,967.87
2016-06-19T09:37:27.188Z,967.86
2016-06-19T09:38:27.208Z,967.9
2016-06-19T09:39:27.212Z,967.89
2016-06-19T09:40:27.229Z,967.92
2016-06-19T09:41:27.233Z,967.91
2016-06-19T09:42:27.253Z,967.88
2016-06-19T09:43:27.256Z,967.91
2016-06-19T09:44:27.276Z,967.87
2016-06-19T09:45:27.279Z,967.94
2016-06-19T09:46:27.298Z,967.92
2016-06-19T09:47:27.301Z,967.9
2016-06-19T09:48:27.320Z,967.89
2016-06-19T09:49:27.324Z,967.92
2016-06-19T09:50:27.343Z,967.92
2016-06-19T09:51:27.347Z,967.92
2016-06-19T09:52:27.366Z,967.9
2016-06-19T09:53:27.369Z,967.93
2016-06-19T09:54:27.388Z,967.94
2016-06-19T09:55:27.392Z,967.94
2016-06-19T09:56:27.410Z,967.92
2016-06-19T09:57:27.414Z,967.96
2016-06-19T09:58:27.433Z,967.94
2016-06-19T09:59:27.437Z,967.96
2016-06-19T10:00:27.440Z,967.94
2016-06-19T10:01:27.459Z,967.91
2016-06-19T10:02:27.463Z,967.9
2016-06-19T10:03:27.482Z,967.91
2016-06-19T10:04:27.485Z,967.91
2016-06-19T10:05:27.504Z,967.92
2016-06-19T10:06:27.508Z,967.88
2016-06-19T10:07:27.527Z,967.91
2016-06-19T10:08:27.546Z,967.89
2016-06-19T10:09:27.549Z,967.89
2016-06-19T10:10:27.569Z,967.91
2016-06-19T10:11:27.572Z,967.93
2016-06-19T10:12:27.590Z,967.92
2016-06-19T10:13:27.594Z,967.92
2016-06-19T10:14:27.597Z,967.92
2016-06-19T10:15:27.617Z,967.93
2016-06-19T10:16:27.620Z,967.92
2016-06-19T10:17:27.640Z,967.92
2016-06-19T10:18:27.643Z,967.93
2016-06-19T10:19:27.662Z,967.94
2016-06-19T10:20:27.665Z,967.93
2016-06-19T10:21:27.685Z,967.91
2016-06-19T10:22:27.688Z,967.89
2016-06-19T10:23:27.708Z,967.91
2016-06-19T10:24:27.711Z,967.9
2016-06-19T10:25:27.729Z,967.94
2016-06-19T10:26:27.733Z,967.93
2016-06-19T10:27:27.752Z,967.93
2016-06-19T10:28:27.756Z,967.87
2016-06-19T10:29:27.759Z,967.91
2016-06-19T10:30:27.778Z,967.94
2016-06-19T10:31:27.798Z,967.93
2016-06-19T10:32:27.801Z,967.91
2016-06-19T10:33:27.805Z,967.89
2016-06-19T10:34:27.824Z,967.93
2016-06-19T10:35:27.827Z,967.92
2016-06-19T10:36:27.846Z,967.94
2016-06-19T10:37:27.865Z,967.93
2016-06-19T10:38:27.868Z,967.93
2016-06-19T10:39:27.872Z,967.95
2016-06-19T10:40:27.891Z,967.93
2016-06-19T10:41:27.910Z,967.91
2016-06-19T10:42:27.914Z,967.9
2016-06-19T10:43:27.933Z,967.91
2016-06-19T10:44:27.937Z,967.95
2016-06-19T10:45:27.954Z,967.92
2016-06-19T10:46:27.958Z,967.93
2016-06-19T10:47:27.977Z,967.96
2016-06-19T10:48:27.981Z,967.95
2016-06-19T10:49:28.001Z,967.93
2016-06-19T10:50:28.004Z,967.91
2016-06-19T10:51:28.023Z,967.93
2016-06-19T10:52:28.025Z,967.9
2016-06-19T10:53:28.046Z,967.89
2016-06-19T10:54:28.049Z,967.89
2016-06-19T10:55:28.052Z,967.86
2016-06-19T10:56:28.071Z,967.87
2016-06-19T10:57:28.075Z,967.86
2016-06-19T10:58:28.094Z,967.86
2016-06-19T10:59:28.113Z,967.86
2016-06-19T11:00:28.117Z,967.87
2016-06-19T11:01:28.137Z,967.88
2016-06-19T11:02:28.142Z,967.86
2016-06-19T11:03:28.163Z,967.89
2016-06-19T11:04:28.168Z,967.87
2016-06-19T11:05:28.188Z,967.88
2016-06-19T11:06:28.192Z,967.88
2016-06-19T11:07:28.211Z,967.91
2016-06-19T11:08:28.215Z,967.9
2016-06-19T11:09:28.235Z,967.88
2016-06-19T11:10:28.239Z,967.89
2016-06-19T11:11:28.259Z,967.93
2016-06-19T11:12:28.263Z,967.91
2016-06-19T11:13:28.281Z,967.95
2016-06-19T11:14:28.286Z,967.93
2016-06-19T11:15:28.305Z,967.88
2016-06-19T11:16:28.308Z,967.93
2016-06-19T11:17:28.312Z,967.92
2016-06-19T11:18:28.330Z,967.91
2016-06-19T11:19:28.334Z,967.89
2016-06-19T11:20:28.353Z,967.89
2016-06-19T11:21:28.373Z,967.91
2016-06-19T11:22:28.376Z,967.85
2016-06-19T11:23:28.380Z,967.86
2016-06-19T11:24:28.398Z,967.87
2016-06-19T11:25:28.417Z,967.87
2016-06-19T11:26:28.421Z,967.89
2016-06-19T11:27:28.441Z,967.87
2016-06-19T11:28:28.444Z,967.87
2016-06-19T11:29:28.462Z,967.9
2016-06-19T11:30:28.466Z,967.88
2016-06-19T11:31:28.469Z,967.88
2016-06-19T11:32:28.489Z,967.87
2016-06-19T11:33:28.492Z,967.81
2016-06-19T11:34:28.510Z,967.84
2016-06-19T11:35:28.514Z,967.89
2016-06-19T11:36:28.533Z,967.83
2016-06-19T11:37:28.553Z,967.78
2016-06-19T11:38:28.556Z,967.84
2016-06-19T11:39:28.575Z,967.86
2016-06-19T11:40:28.578Z,967.86
2016-06-19T11:41:28.581Z,967.83
2016-06-19T11:42:28.602Z,967.77
2016-06-19T11:43:28.605Z,967.81
2016-06-19T11:44:28.624Z,967.82
2016-06-19T11:45:28.628Z,967.8
2016-06-19T11:46:28.646Z,967.75
2016-06-19T11:47:28.650Z,967.82
2016-06-19T11:48:28.669Z,967.8
2016-06-19T11:49:28.672Z,967.79
2016-06-19T11:50:28.691Z,967.78
2016-06-19T11:51:28.710Z,967.81
2016-06-19T11:52:28.713Z,967.78
2016-06-19T11:53:28.718Z,967.78
2016-06-19T11:54:28.737Z,967.75
2016-06-19T11:55:28.756Z,967.72
2016-06-19T11:56:28.759Z,967.74
2016-06-19T11:57:28.763Z,967.76
2016-06-19T11:58:28.797Z,967.74
2016-06-19T11:59:28.785Z,967.75
2016-06-19T12:00:28.805Z,967.73
2016-06-19T12:01:28.823Z,967.76
2016-06-19T12:02:28.826Z,967.68
2016-06-19T12:03:28.830Z,967.71
2016-06-19T12:04:28.850Z,967.67
2016-06-19T12:05:28.853Z,967.67
2016-06-19T12:06:28.871Z,967.67
2016-06-19T12:07:28.875Z,967.64
2016-06-19T12:08:28.895Z,967.62
2016-06-19T12:09:28.897Z,967.63
2016-06-19T12:10:28.917Z,967.64
2016-06-19T12:11:28.920Z,967.63
2016-06-19T12:12:28.940Z,967.66
2016-06-19T12:13:28.943Z,967.64
2016-06-19T12:14:28.962Z,967.62
2016-06-19T12:15:28.981Z,967.65
2016-06-19T12:16:28.985Z,967.67
2016-06-19T12:17:28.988Z,967.66
2016-06-19T12:18:29.007Z,967.66
2016-06-19T12:19:29.010Z,967.64
2016-06-19T12:20:29.030Z,967.67
2016-06-19T12:21:29.065Z,967.67
2016-06-19T12:22:29.051Z,967.67
2016-06-19T12:23:29.055Z,967.66
2016-06-19T12:24:29.059Z,967.64
2016-06-19T12:25:29.078Z,967.69
2016-06-19T12:26:29.098Z,967.67
2016-06-19T12:27:29.101Z,967.68
2016-06-19T12:28:29.119Z,967.66
2016-06-19T12:29:29.123Z,967.64
2016-06-19T12:30:29.143Z,967.64